createdAt,value
2019-03-11T00:01:02.852Z,96463.46
2019-03-11T00:06:38.052Z,96466.38
2019-03-11T00:09:46.357Z,96476.88
2019-03-11T00:12:14.781Z,96476.83
2019-03-11T00:14:43.175Z,96484.05
2019-03-11T00:17:11.580Z,96490.77
2019-03-11T00:19:40.032Z,96506.70
2019-03-11T00:22:08.429Z,96511.16
2019-03-11T00:24:36.829Z,96521.82
2019-03-11T00:27:05.263Z,96513.38
2019-03-11T00:29:33.648Z,96527.67
2019-03-11T00:32:02.049Z,96534.61
2019-03-11T00:34:30.465Z,96534.75
2019-03-11T00:36:58.854Z,96534.75
2019-03-11T00:39:27.243Z,96548.41
2019-03-11T00:42:35.908Z,96540.92
2019-03-11T00:45:44.230Z,96549.13
2019-03-11T00:50:47.150Z,96541.78
2019-03-11T00:55:49.515Z,96535.78
2019-03-11T00:58:17.922Z,96527.20
2019-03-11T01:00:46.334Z,96526.37
2019-03-11T01:03:14.697Z,96523.39
2019-03-11T01:05:43.134Z,96521.69
2019-03-11T01:08:11.623Z,96513.11
2019-03-11T01:10:40.074Z,96512.95
2019-03-11T01:13:08.568Z,96516.89
2019-03-11T01:15:37.027Z,96515.88
2019-03-11T01:21:00.298Z,96518.87
2019-03-11T01:23:28.691Z,96516.73
2019-03-11T01:25:57.081Z,96515.55
2019-03-11T01:28:25.533Z,96503.80
2019-03-11T01:31:34.110Z,96506.36
2019-03-11T01:36:37.960Z,96500.86
2019-03-11T01:39:46.328Z,96499.35
2019-03-11T01:42:14.717Z,96500.44
2019-03-11T01:44:43.115Z,96500.94
2019-03-11T01:49:45.525Z,96492.91
2019-03-11T01:52:13.952Z,96491.73
2019-03-11T01:54:42.343Z,96494.63
2019-03-11T01:57:50.693Z,96485.73
2019-03-11T02:00:59.009Z,96489.94
2019-03-11T02:03:46.681Z,96488.76
2019-03-11T02:23:05.167Z,96481.68
2019-03-11T02:25:33.583Z,96487.89
2019-03-11T02:28:01.973Z,96483.95
2019-03-11T02:30:30.376Z,96479.19
2019-03-11T02:38:27.808Z,96468.18
2019-03-11T02:40:56.198Z,96472.75
2019-03-11T02:43:24.587Z,96462.37
2019-03-11T02:45:53.015Z,96453.17
2019-03-11T02:48:21.410Z,96460.04
2019-03-11T02:50:49.808Z,96459.68
2019-03-11T02:53:18.413Z,96452.75
2019-03-11T02:55:50.924Z,96452.42
2019-03-11T02:58:18.589Z,96453.05
2019-03-11T03:03:41.737Z,96444.67
2019-03-11T03:11:52.539Z,96444.78
2019-03-11T03:16:55.416Z,96445.58
2019-03-11T03:22:16.926Z,96446.67
2019-03-11T03:24:45.343Z,96444.73
2019-03-11T03:27:13.737Z,96445.64
2019-03-11T03:29:42.135Z,96447.64
2019-03-11T03:32:10.562Z,96438.38
2019-03-11T03:37:26.475Z,96432.08
2019-03-11T03:39:54.870Z,96426.75
2019-03-11T03:42:23.269Z,96419.91
2019-03-11T03:45:30.283Z,96423.05
2019-03-11T03:48:38.749Z,96428.31
2019-03-11T03:51:08.743Z,96425.68
2019-03-11T03:53:37.128Z,96429.79
2019-03-11T03:56:05.524Z,96425.98
2019-03-11T03:58:33.938Z,96432.83
2019-03-11T04:01:02.335Z,96429.38
2019-03-11T04:03:30.843Z,96430.88
2019-03-11T04:06:18.458Z,96436.83
2019-03-11T04:08:46.862Z,96443.39
2019-03-11T04:11:15.260Z,96430.90
2019-03-11T04:13:43.682Z,96429.90
2019-03-11T04:16:31.324Z,96423.05
2019-03-11T04:18:59.745Z,96428.66
2019-03-11T04:24:55.483Z,96425.05
2019-03-11T04:27:23.878Z,96419.81
2019-03-11T04:30:11.559Z,96409.92
2019-03-11T04:32:39.953Z,96404.17
2019-03-11T04:35:27.683Z,96403.66
2019-03-11T04:37:56.076Z,96404.74
2019-03-11T04:40:26.446Z,96401.78
2019-03-11T04:45:28.676Z,96386.78
2019-03-11T04:48:16.427Z,96383.93
2019-03-11T04:50:44.820Z,96383.38
2019-03-11T04:53:13.214Z,96380.06
2019-03-11T04:58:16.221Z,96380.39
2019-03-11T05:00:44.685Z,96386.00
2019-03-11T05:03:13.069Z,96385.64
2019-03-11T05:05:41.463Z,96377.62
2019-03-11T05:08:09.899Z,96378.13
2019-03-11T05:10:38.318Z,96378.25
2019-03-11T05:13:26.057Z,96366.37
2019-03-11T05:15:54.445Z,96360.50
2019-03-11T05:18:22.855Z,96353.70
2019-03-11T05:23:25.769Z,96349.01
2019-03-11T05:25:54.205Z,96350.81
2019-03-11T05:31:30.695Z,96351.24
2019-03-11T05:34:39.020Z,96339.20
2019-03-11T05:39:41.475Z,96339.43
2019-03-11T05:42:09.905Z,96336.31
2019-03-11T05:44:38.313Z,96328.98
2019-03-11T05:47:06.703Z,96328.69
2019-03-11T05:52:21.238Z,96328.23
2019-03-11T05:54:49.686Z,96338.23
2019-03-11T05:57:18.064Z,96337.25
2019-03-11T05:59:46.487Z,96327.11
2019-03-11T06:02:14.916Z,96316.11
2019-03-11T06:04:43.315Z,96309.45
2019-03-11T06:07:11.701Z,96305.23
2019-03-11T06:12:13.958Z,96303.68
2019-03-11T06:17:16.043Z,96303.05
2019-03-11T06:19:44.450Z,96302.91
2019-03-11T06:27:22.481Z,96300.21
2019-03-11T06:35:01.654Z,96284.42
2019-03-11T06:37:30.146Z,96266.22
2019-03-11T06:39:58.530Z,96259.73
2019-03-11T06:42:26.924Z,96251.40
2019-03-11T06:44:55.351Z,96260.64
2019-03-11T06:47:23.742Z,96249.50
2019-03-11T06:49:52.142Z,96268.30
2019-03-11T06:54:54.774Z,96271.56
2019-03-11T06:59:57.643Z,96275.37
2019-03-11T07:05:02.194Z,96275.95
2019-03-11T07:07:30.033Z,96276.13
2019-03-11T07:09:58.424Z,96267.11
2019-03-11T07:12:26.839Z,96265.02
2019-03-11T07:14:55.270Z,96266.69
2019-03-11T07:17:23.675Z,96265.70
2019-03-11T07:19:52.054Z,96263.73
2019-03-11T07:22:20.473Z,96256.20
2019-03-11T07:24:48.882Z,96259.23
2019-03-11T07:27:17.277Z,96268.12
2019-03-11T07:29:45.698Z,96272.11
2019-03-11T07:32:14.092Z,96272.78
2019-03-11T07:34:42.480Z,96287.61
2019-03-11T07:39:45.045Z,96284.30
2019-03-11T07:44:47.434Z,96277.25
2019-03-11T07:47:15.825Z,96281.83
2019-03-11T07:49:44.244Z,96291.03
2019-03-11T07:52:12.637Z,96264.38
2019-03-11T07:54:41.034Z,96263.56
2019-03-11T07:57:21.740Z,96275.75
2019-03-11T07:59:50.127Z,96283.00
2019-03-11T08:02:18.609Z,96277.92
2019-03-11T08:07:20.650Z,96297.12
2019-03-11T08:09:49.134Z,96299.26
2019-03-11T08:12:17.548Z,96308.82
2019-03-11T08:14:45.935Z,96295.31
2019-03-11T08:17:14.415Z,96308.19
2019-03-11T08:19:42.760Z,96324.89
2019-03-11T08:22:11.177Z,96320.19
2019-03-11T08:27:13.224Z,96352.55
2019-03-11T08:29:41.614Z,96362.78
2019-03-11T08:32:10.039Z,96394.84
2019-03-11T08:34:38.460Z,96386.13
2019-03-11T08:37:06.856Z,96397.56
2019-03-11T08:39:35.341Z,96433.63
2019-03-11T08:42:37.499Z,96430.34
2019-03-11T08:44:53.208Z,96436.39
2019-03-11T08:47:21.610Z,96418.61
2019-03-11T08:49:50.010Z,96421.46
2019-03-11T08:52:18.429Z,96425.86
2019-03-11T08:54:46.819Z,96435.50
2019-03-11T08:57:15.210Z,96441.09
2019-03-11T08:59:55.718Z,96453.54
2019-03-11T09:02:24.108Z,96447.48
2019-03-11T09:04:52.494Z,96451.66
2019-03-11T09:09:54.877Z,96456.40
2019-03-11T09:15:37.113Z,96465.55
2019-03-11T09:18:05.567Z,96494.41
2019-03-11T09:20:33.969Z,96517.59
2019-03-11T09:23:21.645Z,96524.59
2019-03-11T09:25:50.039Z,96511.16
2019-03-11T09:28:18.489Z,96516.97
2019-03-11T09:33:20.581Z,96536.20
2019-03-11T09:35:49.023Z,96537.98
2019-03-11T09:38:17.443Z,96527.42
2019-03-11T09:43:40.101Z,96503.93
2019-03-11T09:46:08.558Z,96510.47
2019-03-11T09:48:36.955Z,96509.87
2019-03-11T09:51:24.709Z,96511.30
2019-03-11T09:53:53.100Z,96516.42
2019-03-11T09:56:21.491Z,96506.67
2019-03-11T09:58:49.950Z,96510.71
2019-03-11T10:01:30.815Z,96502.50
2019-03-11T10:03:59.245Z,96496.56
2019-03-11T10:06:27.658Z,96502.50
2019-03-11T10:08:56.066Z,96490.47
2019-03-11T10:11:24.489Z,96480.39
2019-03-11T10:13:52.885Z,96477.44
2019-03-11T10:16:21.268Z,96474.23
2019-03-11T10:21:23.674Z,96486.59
2019-03-11T10:26:26.305Z,96485.28
2019-03-11T10:28:54.751Z,96484.91
2019-03-11T10:31:23.149Z,96500.60
2019-03-11T10:34:10.894Z,96504.52
2019-03-11T10:36:39.296Z,96511.29
2019-03-11T10:39:27.072Z,96538.16
2019-03-11T10:41:55.464Z,96531.28
2019-03-11T10:44:23.865Z,96528.28
2019-03-11T10:46:52.291Z,96533.41
2019-03-11T10:49:20.698Z,96539.34
2019-03-11T10:51:49.095Z,96532.80
2019-03-11T10:54:17.548Z,96539.45
2019-03-11T10:56:45.984Z,96544.91
2019-03-11T10:59:14.386Z,96539.44
2019-03-11T11:02:02.011Z,96544.89
2019-03-11T11:04:30.398Z,96556.78
2019-03-11T11:06:58.795Z,96558.91
2019-03-11T11:09:46.446Z,96552.46
2019-03-11T11:12:14.860Z,96566.74
2019-03-11T11:14:43.254Z,96574.25
2019-03-11T11:17:30.878Z,96577.31
2019-03-11T11:20:03.281Z,96572.55
2019-03-11T11:22:41.302Z,96574.67
2019-03-11T11:24:59.555Z,96567.28
2019-03-11T11:27:28.010Z,96565.70
2019-03-11T11:29:56.435Z,96567.02
2019-03-11T11:34:59.444Z,96572.41
2019-03-11T11:40:01.817Z,96557.53
2019-03-11T11:45:44.090Z,96547.38
2019-03-11T11:50:46.863Z,96547.22
2019-03-11T11:53:34.477Z,96546.59
2019-03-11T11:56:02.873Z,96537.19
2019-03-11T11:58:31.266Z,96533.63
2019-03-11T12:00:59.731Z,96536.30
2019-03-11T12:03:28.130Z,96546.23
2019-03-11T12:06:09.051Z,96538.66
2019-03-11T12:08:39.280Z,96526.31
2019-03-11T12:11:07.688Z,96550.62
2019-03-11T12:13:36.112Z,96535.78
2019-03-11T12:16:23.848Z,96540.59
2019-03-11T12:18:52.235Z,96546.00
2019-03-11T12:21:20.703Z,96543.66
2019-03-11T12:24:08.523Z,96548.00
2019-03-11T12:26:36.919Z,96552.92
2019-03-11T12:29:45.425Z,96558.42
2019-03-11T12:35:22.177Z,96535.34
2019-03-11T12:38:30.493Z,96530.25
2019-03-11T12:40:58.935Z,96536.30
2019-03-11T12:43:27.331Z,96517.69
2019-03-11T12:45:55.737Z,96517.17
2019-03-11T12:48:46.533Z,96506.55
2019-03-11T12:51:15.423Z,96498.42
2019-03-11T12:53:44.251Z,96496.74
2019-03-11T12:58:47.105Z,96498.34
2019-03-11T13:01:15.498Z,96494.53
2019-03-11T13:06:18.849Z,96483.45
2019-03-11T13:09:07.455Z,96485.07
2019-03-11T13:11:56.191Z,96479.59
2019-03-11T13:14:24.606Z,96478.77
2019-03-11T13:16:52.995Z,96480.77
2019-03-11T13:19:21.394Z,96477.19
2019-03-11T13:22:09.523Z,96481.32
2019-03-11T13:24:37.896Z,96490.95
2019-03-11T13:27:06.291Z,96496.73
2019-03-11T13:29:34.723Z,96509.42
2019-03-11T13:34:50.707Z,96504.16
2019-03-11T13:37:19.188Z,96493.16
2019-03-11T13:39:47.587Z,96482.28
2019-03-11T13:45:30.448Z,96485.50
2019-03-11T13:48:18.104Z,96482.84
2019-03-11T13:50:46.515Z,96485.47
2019-03-11T13:59:03.700Z,96495.93
2019-03-11T14:01:32.310Z,96495.93
2019-03-11T14:04:00.703Z,96495.28
2019-03-11T14:06:48.433Z,96506.30
2019-03-11T14:09:16.831Z,96503.25
2019-03-11T14:14:52.091Z,96500.08
2019-03-11T14:20:48.267Z,96494.03
2019-03-11T14:23:16.688Z,96493.97
2019-03-11T14:26:04.500Z,96502.13
2019-03-11T14:28:32.897Z,96496.15
2019-03-11T14:34:28.319Z,96503.66
2019-03-11T14:36:56.722Z,96497.79
2019-03-11T14:39:44.308Z,96507.23
2019-03-11T14:42:12.698Z,96510.29
2019-03-11T14:44:41.142Z,96514.55
2019-03-11T14:49:44.145Z,96522.56
2019-03-11T14:52:31.865Z,96526.06
2019-03-11T14:55:01.025Z,96523.22
2019-03-11T14:57:48.777Z,96518.67
2019-03-11T15:00:57.696Z,96528.53
2019-03-11T15:03:26.449Z,96528.42
2019-03-11T15:05:54.890Z,96546.94
2019-03-11T15:08:43.373Z,96559.94
2019-03-11T15:16:54.624Z,96571.77
2019-03-11T15:19:23.333Z,96573.01
2019-03-11T15:21:52.236Z,96576.50
2019-03-11T15:24:39.823Z,96582.34
2019-03-11T15:27:08.540Z,96572.38
2019-03-11T15:32:26.443Z,96592.88
2019-03-11T15:34:55.113Z,96571.33
2019-03-11T15:37:23.619Z,96585.65
2019-03-11T15:42:26.579Z,96584.29
2019-03-11T15:47:48.126Z,96593.98
2019-03-11T15:53:11.740Z,96595.56
2019-03-11T15:55:40.202Z,96588.04
2019-03-11T15:58:08.600Z,96583.77
2019-03-11T16:01:16.960Z,96599.39
2019-03-11T16:03:45.358Z,96598.42
2019-03-11T16:06:53.729Z,96608.90
2019-03-11T16:09:41.318Z,96610.70
2019-03-11T16:14:49.225Z,96622.73
2019-03-11T16:17:13.564Z,96641.93
2019-03-11T16:19:41.964Z,96633.00
2019-03-11T16:22:10.354Z,96636.20
2019-03-11T16:24:38.772Z,96641.33
2019-03-11T16:27:26.366Z,96642.27
2019-03-11T16:29:54.807Z,96651.59
2019-03-11T16:32:23.196Z,96677.19
2019-03-11T16:34:51.582Z,96681.23
2019-03-11T16:39:53.703Z,96679.54
2019-03-11T16:45:56.422Z,96688.83
2019-03-11T16:48:43.946Z,96693.70
2019-03-11T16:51:12.359Z,96697.00
2019-03-11T16:54:00.116Z,96693.92
2019-03-11T16:59:23.130Z,96690.35
2019-03-11T17:02:31.441Z,96685.49
2019-03-11T17:04:59.855Z,96711.06
2019-03-11T17:07:28.246Z,96726.89
2019-03-11T17:09:56.699Z,96743.66
2019-03-11T17:14:59.453Z,96751.82
2019-03-11T17:17:27.875Z,96760.02
2019-03-11T17:19:56.280Z,96769.87
2019-03-11T17:22:24.667Z,96771.94
2019-03-11T17:24:53.125Z,96774.84
2019-03-11T17:27:21.548Z,96783.30
2019-03-11T17:35:32.404Z,96776.29
2019-03-11T17:38:20.049Z,96771.99
2019-03-11T17:40:48.443Z,96770.89
2019-03-11T17:43:16.835Z,96762.90
2019-03-11T17:46:04.478Z,96765.80
2019-03-11T17:48:52.214Z,96767.10
2019-03-11T17:51:20.635Z,96766.28
2019-03-11T17:53:49.042Z,96767.45
2019-03-11T17:56:17.439Z,96784.42
2019-03-11T17:58:45.865Z,96786.45
2019-03-11T18:01:33.588Z,96776.97
2019-03-11T18:04:02.147Z,96780.20
2019-03-11T18:06:49.742Z,96786.20
2019-03-11T18:11:52.639Z,96790.02
2019-03-11T18:16:55.358Z,96801.38
2019-03-11T18:19:23.777Z,96806.98
2019-03-11T18:22:11.363Z,96814.63
2019-03-11T18:24:39.798Z,96814.63
2019-03-11T18:27:08.189Z,96816.61
2019-03-11T18:29:36.607Z,96820.88
2019-03-11T18:34:39.126Z,96834.62
2019-03-11T18:37:47.521Z,96832.88
2019-03-11T18:40:55.856Z,96832.19
2019-03-11T18:45:58.229Z,96849.66
2019-03-11T18:48:46.065Z,96847.91
2019-03-11T18:51:14.447Z,96849.94
2019-03-11T18:53:42.853Z,96852.08
2019-03-11T18:58:45.124Z,96852.11
2019-03-11T19:01:13.536Z,96853.77
2019-03-11T19:04:01.157Z,96860.53
2019-03-11T19:06:29.570Z,96862.15
2019-03-11T19:08:58.044Z,96868.33
2019-03-11T19:11:26.418Z,96873.66
2019-03-11T19:16:28.852Z,96874.97
2019-03-11T19:19:16.582Z,96869.27
2019-03-11T19:21:45.033Z,96876.48
2019-03-11T19:24:13.421Z,96895.00
2019-03-11T19:29:15.977Z,96888.77
2019-03-11T19:31:44.426Z,96894.27
2019-03-11T19:36:46.589Z,96877.78
2019-03-11T19:42:09.714Z,96886.33
2019-03-11T19:44:38.083Z,96881.20
2019-03-11T19:47:06.567Z,96876.81
2019-03-11T19:49:34.970Z,96889.77
2019-03-11T19:52:03.345Z,96891.70
2019-03-11T19:54:31.767Z,96890.27
2019-03-11T19:57:00.176Z,96894.47
2019-03-11T19:59:28.638Z,96899.70
2019-03-11T20:01:57.033Z,96903.13
2019-03-11T20:04:25.463Z,96899.31
2019-03-11T20:06:53.891Z,96908.46
2019-03-11T20:09:22.272Z,96907.05
2019-03-11T20:14:24.636Z,96929.41
2019-03-11T20:16:53.104Z,96909.71
2019-03-11T20:19:21.505Z,96914.73
2019-03-11T20:21:50.847Z,96911.41
2019-03-11T20:24:39.389Z,96930.44
2019-03-11T20:27:07.886Z,96922.50
2019-03-11T20:29:36.266Z,96922.39
2019-03-11T20:32:04.752Z,96911.60
2019-03-11T20:34:52.509Z,96916.25
2019-03-11T20:39:55.412Z,96908.30
2019-03-11T20:42:23.783Z,96909.61
2019-03-11T20:44:52.229Z,96917.84
2019-03-11T20:47:20.632Z,96909.52
2019-03-11T20:49:49.029Z,96916.53
2019-03-11T20:52:36.683Z,96915.56
2019-03-11T20:55:45.035Z,96908.10
2019-03-11T20:58:13.386Z,96910.61
2019-03-11T21:00:41.990Z,96921.42
2019-03-11T21:06:46.750Z,96921.80
2019-03-11T21:09:56.819Z,96926.55
2019-03-11T21:12:25.262Z,96921.56
2019-03-11T21:14:53.673Z,96922.66
2019-03-11T21:17:26.950Z,96917.09
2019-03-11T21:22:26.581Z,96930.90
2019-03-11T21:27:28.874Z,96909.25
2019-03-11T21:29:57.446Z,96912.72
2019-03-11T21:32:27.525Z,96914.37
2019-03-11T21:34:55.972Z,96915.48
2019-03-11T21:39:58.411Z,96927.12
2019-03-11T21:42:26.973Z,96920.48
2019-03-11T21:45:15.010Z,96911.59
2019-03-11T21:50:36.384Z,96906.36
2019-03-11T21:55:38.815Z,96913.94
2019-03-11T22:00:40.855Z,96909.91
2019-03-11T22:03:09.249Z,96919.89
2019-03-11T22:08:11.381Z,96911.70
2019-03-11T22:10:39.774Z,96916.10
2019-03-11T22:15:42.131Z,96908.46
2019-03-11T22:18:10.530Z,96904.16
2019-03-11T22:20:39.001Z,96896.55
2019-03-11T22:23:07.391Z,96902.81
2019-03-11T22:25:35.798Z,96898.55
2019-03-11T22:28:44.206Z,96904.61
2019-03-11T22:31:12.611Z,96913.55
2019-03-11T22:33:41.006Z,96908.67
2019-03-11T22:36:09.446Z,96901.68
2019-03-11T22:38:37.835Z,96903.81
2019-03-11T22:41:25.525Z,96916.79
2019-03-11T22:43:53.941Z,96901.92
2019-03-11T22:46:22.317Z,96895.62
2019-03-11T22:48:50.801Z,96903.38
2019-03-11T22:54:06.628Z,96903.85
2019-03-11T22:56:35.015Z,96908.98
2019-03-11T22:59:03.411Z,96904.47
2019-03-11T23:02:11.964Z,96902.20
2019-03-11T23:04:41.864Z,96899.48
2019-03-11T23:07:10.259Z,96896.87
2019-03-11T23:09:38.722Z,96908.53
2019-03-11T23:12:07.113Z,96904.61
2019-03-11T23:14:35.505Z,96904.51
2019-03-11T23:19:58.894Z,96902.48
2019-03-11T23:22:27.283Z,96908.43
2019-03-11T23:24:55.678Z,96915.34
2019-03-11T23:27:24.139Z,96904.30
2019-03-11T23:29:52.532Z,96904.19
2019-03-11T23:32:20.920Z,96904.54
2019-03-11T23:34:49.335Z,96889.70
2019-03-11T23:37:17.731Z,96881.85
2019-03-11T23:39:46.123Z,96883.02
2019-03-11T23:42:14.667Z,96889.45
2019-03-11T23:44:43.042Z,96881.61
2019-03-11T23:47:11.435Z,96879.72
2019-03-11T23:52:13.845Z,96874.38
2019-03-11T23:57:16.180Z,96879.98
2019-03-11T23:59:44.579Z,96873.30
